Time;durP1;ratioP1;P1;durP2;ratioP2;P2;SDS_P1;SDS_P2;PMS_P1;PMS_P2;Temp;Humidity;BMP_temperature;BMP_pressure;BME280_temperature;BME280_humidity;BME280_pressure;Samples;Min_cycle;Max_cycle;Signal;HPM_P1;HPM_P2
2023/08/17 00:01:37;;;;;;;4.57;1.83;;;;;;;19.00;100.00;101790.56;4971365;28;20030;-67
2023/08/17 00:04:03;;;;;;;3.33;1.85;;;;;;;18.99;100.00;101793.16;4971468;28;20066;-67
2023/08/17 00:06:28;;;;;;;3.33;1.38;;;;;;;18.98;100.00;101788.81;4970380;28;20426;-64
2023/08/17 00:08:53;;;;;;;4.55;2.17;;;;;;;18.98;100.00;101794.03;4970974;28;20029;-66
2023/08/17 00:11:18;;;;;;;4.68;1.90;;;;;;;18.95;100.00;101787.88;4970731;28;20092;-67
2023/08/17 00:13:44;;;;;;;2.38;2.13;;;;;;;18.94;100.00;101782.63;4971211;28;20430;-67
2023/08/17 00:16:09;;;;;;;4.63;1.85;;;;;;;18.92;100.00;101790.50;4971279;28;20039;-66
2023/08/17 00:18:34;;;;;;;3.05;1.60;;;;;;;18.91;100.00;101788.72;4970624;28;20030;-68
2023/08/17 00:21:00;;;;;;;2.38;1.55;;;;;;;18.90;100.00;101781.72;4970868;28;20030;-66
2023/08/17 00:23:25;;;;;;;4.25;1.70;;;;;;;18.87;100.00;101786.03;4971273;28;20038;-65
2023/08/17 00:25:50;;;;;;;3.65;1.50;;;;;;;18.84;100.00;101789.50;4970441;28;20026;-67
2023/08/17 00:28:16;;;;;;;3.35;1.50;;;;;;;18.80;100.00;101785.06;4970758;28;20471;-67
2023/08/17 00:30:41;;;;;;;2.80;1.90;;;;;;;18.79;100.00;101778.06;4970667;28;20034;-67
2023/08/17 00:33:06;;;;;;;4.95;1.52;;;;;;;18.78;100.00;101776.31;4970489;28;20466;-67
2023/08/17 00:35:32;;;;;;;4.32;1.73;;;;;;;18.76;100.00;101773.66;4970261;28;20027;-66
2023/08/17 00:37:58;;;;;;;3.25;2.05;;;;;;;18.73;100.00;101776.22;4970652;28;20086;-67
2023/08/17 00:40:23;;;;;;;5.15;1.60;;;;;;;18.69;100.00;101777.94;4970439;28;20105;-67
2023/08/17 00:42:49;;;;;;;4.22;1.70;;;;;;;18.68;100.00;101770.03;4970268;28;20084;-63
2023/08/17 00:45:15;;;;;;;3.80;1.70;;;;;;;18.64;100.00;101769.13;4970061;28;20592;-64
2023/08/17 00:47:41;;;;;;;3.75;1.60;;;;;;;18.61;100.00;101779.59;4970303;28;20027;-67
2023/08/17 00:50:07;;;;;;;3.00;2.13;;;;;;;18.57;100.00;101783.03;4970425;28;20085;-67
2023/08/17 00:52:33;;;;;;;3.13;1.70;;;;;;;18.56;100.00;101776.91;4969967;28;20018;-66
2023/08/17 00:55:00;;;;;;;5.18;1.92;;;;;;;18.51;100.00;101783.81;4970056;28;20027;-66
2023/08/17 00:57:26;;;;;;;3.40;1.70;;;;;;;18.50;100.00;101781.16;4969780;28;20471;-67
2023/08/17 00:59:51;;;;;;;3.17;2.30;;;;;;;18.47;100.00;101779.41;4969707;28;20038;-67
2023/08/17 01:02:17;;;;;;;5.10;2.65;;;;;;;18.44;100.00;101795.09;4969770;28;20061;-66
2023/08/17 01:04:43;;;;;;;3.53;1.75;;;;;;;18.41;100.00;101788.06;4969877;28;20034;-67
2023/08/17 01:07:08;;;;;;;3.78;2.33;;;;;;;18.39;100.00;101789.78;4969301;28;20050;-67
2023/08/17 01:09:34;;;;;;;3.10;1.90;;;;;;;18.36;100.00;101789.75;4969742;28;20031;-67
2023/08/17 01:12:24;;;;;;;4.90;2.10;;;;;;;18.31;100.00;101791.41;4968514;28;20026;-67
2023/08/17 01:14:59;;;;;;;4.97;1.90;;;;;;;18.28;100.00;101786.09;4969707;28;20445;-66
2023/08/17 01:17:38;;;;;;;3.67;1.60;;;;;;;18.27;100.00;101794.84;4969230;28;20023;-67
2023/08/17 01:20:05;;;;;;;4.93;1.92;;;;;;;18.24;100.00;101790.44;4969563;28;20281;-67
2023/08/17 01:22:33;;;;;;;6.13;1.60;;;;;;;18.22;100.00;101786.91;4969571;28;20023;-66
2023/08/17 01:24:58;;;;;;;3.50;2.03;;;;;;;18.19;100.00;101792.09;4969463;28;20130;-67
2023/08/17 01:27:24;;;;;;;3.38;1.90;;;;;;;18.16;100.00;101787.69;4969544;28;20482;-67
2023/08/17 01:29:51;;;;;;;5.68;1.98;;;;;;;18.14;100.00;101784.16;4969637;28;20027;-67
2023/08/17 01:32:27;;;;;;;2.40;1.75;;;;;;;18.09;100.00;101781.44;4969376;28;20038;-67
2023/08/17 01:34:59;;;;;;;4.68;2.22;;;;;;;18.08;100.00;101778.81;4969352;28;20026;-67
2023/08/17 01:37:28;;;;;;;6.35;2.38;;;;;;;18.07;100.00;101777.03;4968553;28;20748;-67
2023/08/17 01:39:55;;;;;;;3.78;1.95;;;;;;;18.06;100.00;101770.88;4969575;28;20498;-67
2023/08/17 01:42:22;;;;;;;2.63;1.95;;;;;;;18.05;100.00;101776.13;4956616;28;20035;-66
2023/08/17 01:44:47;;;;;;;2.55;1.88;;;;;;;18.03;100.00;101781.34;4969361;28;20065;-68
2023/08/17 01:47:12;;;;;;;5.40;2.90;;;;;;;18.00;100.00;101779.56;4969506;28;20097;-67
2023/08/17 01:49:38;;;;;;;2.92;2.35;;;;;;;17.99;100.00;101774.28;4968994;28;20038;-67
2023/08/17 01:52:03;;;;;;;5.10;2.53;;;;;;;17.99;100.00;101774.28;4968987;28;20026;-67
2023/08/17 01:54:29;;;;;;;3.38;1.88;;;;;;;17.98;100.00;101778.66;4968579;28;20035;-66
2023/08/17 01:56:54;;;;;;;4.60;2.20;;;;;;;17.97;100.00;101779.50;4969648;28;20497;-63
2023/08/17 01:59:19;;;;;;;6.82;2.38;;;;;;;17.98;100.00;101776.03;4969083;28;20118;-67
2023/08/17 02:01:44;;;;;;;5.05;2.10;;;;;;;17.98;100.00;101778.66;4968856;28;20027;-65
2023/08/17 02:04:10;;;;;;;4.35;2.35;;;;;;;17.97;100.00;101776.00;4968994;28;20027;-67
2023/08/17 02:06:35;;;;;;;5.18;2.42;;;;;;;17.97;100.00;101776.88;4968671;28;20039;-66
2023/08/17 02:09:00;;;;;;;4.68;2.05;;;;;;;17.96;100.00;101780.38;4968312;28;20037;-66
2023/08/17 02:11:26;;;;;;;3.70;2.53;;;;;;;17.93;100.00;101775.09;4968540;28;20035;-66
2023/08/17 02:13:52;;;;;;;3.95;2.53;;;;;;;17.92;100.00;101773.31;4969334;28;20382;-67
2023/08/17 02:16:17;;;;;;;5.32;2.40;;;;;;;17.89;100.00;101778.50;4968526;28;20018;-67
2023/08/17 02:18:42;;;;;;;5.50;2.33;;;;;;;17.87;100.00;101777.59;4969364;28;20030;-67
2023/08/17 02:21:09;;;;;;;8.23;2.58;;;;;;;17.83;100.00;101781.00;4968739;28;20039;-64
2023/08/17 02:23:34;;;;;;;4.80;2.40;;;;;;;17.80;100.00;101767.84;4969140;28;20034;-63
2023/08/17 02:25:59;;;;;;;3.35;2.38;;;;;;;17.76;100.00;101773.06;4968938;28;20030;-64
2023/08/17 02:28:24;;;;;;;5.40;2.30;;;;;;;17.76;100.00;101780.91;4968989;28;20026;-67
2023/08/17 02:30:55;;;;;;;3.70;2.08;;;;;;;17.71;100.00;101774.72;4968786;28;20490;-66
2023/08/17 02:33:20;;;;;;;5.53;2.30;;;;;;;17.69;100.00;101781.66;4968548;28;20051;-67
2023/08/17 02:35:49;;;;;;;4.97;2.47;;;;;;;17.64;100.00;101776.38;4968542;28;20058;-67
2023/08/17 02:38:14;;;;;;;5.85;2.60;;;;;;;17.60;100.00;101769.28;4969188;28;20114;-66
2023/08/17 02:40:39;;;;;;;6.10;1.95;;;;;;;17.60;100.00;101771.03;4966036;28;20484;-64
2023/08/17 02:43:05;;;;;;;5.57;2.50;;;;;;;17.60;100.00;101771.03;4957012;28;20219;-67
2023/08/17 02:45:30;;;;;;;4.60;2.67;;;;;;;17.60;100.00;101771.03;4967989;28;20333;-67
2023/08/17 02:47:55;;;;;;;5.50;2.67;;;;;;;17.61;100.00;101762.31;4968979;28;20250;-67
2023/08/17 02:50:20;;;;;;;4.45;2.00;;;;;;;17.60;100.00;101765.78;4967955;28;20497;-67
2023/08/17 02:52:46;;;;;;;3.67;2.03;;;;;;;17.58;100.00;101767.47;4968695;28;20136;-67
2023/08/17 02:55:11;;;;;;;3.40;2.25;;;;;;;17.57;100.00;101765.72;4968402;28;20026;-67
2023/08/17 02:57:36;;;;;;;3.35;1.95;;;;;;;17.56;100.00;101763.97;4968457;28;20023;-67
2023/08/17 03:00:02;;;;;;;4.00;2.25;;;;;;;17.57;100.00;101760.50;4968152;28;20035;-65
2023/08/17 03:02:27;;;;;;;8.30;2.53;;;;;;;17.56;100.00;101756.13;4968178;28;20030;-67
2023/08/17 03:04:52;;;;;;;5.45;2.10;;;;;;;17.55;100.00;101759.56;4968869;28;20320;-66
2023/08/17 03:07:18;;;;;;;4.72;2.00;;;;;;;17.52;100.00;101760.44;4968288;28;20134;-67
2023/08/17 03:09:43;;;;;;;5.03;2.25;;;;;;;17.51;100.00;101756.91;4968359;28;20046;-67
2023/08/17 03:12:08;;;;;;;5.40;2.47;;;;;;;17.50;100.00;101760.38;4968373;28;20491;-67
2023/08/17 03:14:33;;;;;;;3.85;2.40;;;;;;;17.49;100.00;101755.09;4967955;28;20778;-67
2023/08/17 03:16:59;;;;;;;4.22;2.15;;;;;;;17.49;100.00;101757.72;4968156;28;20015;-67
2023/08/17 03:19:24;;;;;;;7.05;2.47;;;;;;;17.48;100.00;101755.97;4969130;28;20533;-65
2023/08/17 03:21:49;;;;;;;4.53;1.95;;;;;;;17.46;100.00;101753.34;4971799;28;20037;-67
2023/08/17 03:24:14;;;;;;;4.60;2.28;;;;;;;17.46;100.00;101753.34;4971720;28;20048;-67
2023/08/17 03:26:40;;;;;;;3.65;2.10;;;;;;;17.46;100.00;101752.44;4971314;28;20026;-68
2023/08/17 03:29:05;;;;;;;7.00;2.10;;;;;;;17.44;100.00;101748.91;4971962;28;20474;-66
2023/08/17 03:31:30;;;;;;;1.73;1.58;;;;;;;17.39;100.00;101746.22;4958564;28;20022;-66
2023/08/17 03:33:56;;;;;;;4.47;2.20;;;;;;;17.36;100.00;101747.03;4972190;28;20470;-67
2023/08/17 03:36:22;;;;;;;3.67;2.25;;;;;;;17.33;100.00;101741.75;4971481;28;20126;-67
2023/08/17 03:38:47;;;;;;;8.02;2.10;;;;;;;17.33;100.00;101740.84;4971084;28;20037;-66
2023/08/17 03:41:12;;;;;;;2.92;1.92;;;;;;;17.32;100.00;101745.22;4965106;28;20145;-66
2023/08/17 03:43:37;;;;;;;5.35;1.70;;;;;;;17.29;100.00;101745.16;4964760;28;20035;-67
2023/08/17 03:46:04;;;;;;;4.20;1.85;;;;;;;17.27;100.00;101742.50;4970920;28;20534;-66
2023/08/17 03:48:29;;;;;;;3.13;1.67;;;;;;;17.24;100.00;101739.84;4971146;28;20109;-65
2023/08/17 03:50:55;;;;;;;4.13;1.95;;;;;;;17.23;100.00;101751.19;4969687;28;20101;-66
2023/08/17 03:53:20;;;;;;;3.95;2.17;;;;;;;17.23;100.00;101745.94;4971223;28;20037;-66
2023/08/17 03:55:47;;;;;;;2.17;1.65;;;;;;;17.23;100.00;101739.81;4971107;28;20401;-66
2023/08/17 03:58:12;;;;;;;4.78;1.77;;;;;;;17.24;100.00;101742.47;4971390;28;20039;-66
2023/08/17 04:00:39;;;;;;;4.40;1.98;;;;;;;17.22;100.00;101749.41;4971148;28;20025;-67
2023/08/17 04:03:04;;;;;;;3.13;1.75;;;;;;;17.21;100.00;101742.41;4971180;28;20479;-67
2023/08/17 04:05:30;;;;;;;4.95;2.33;;;;;;;17.20;100.00;101755.47;4970024;28;20041;-67
2023/08/17 04:07:55;;;;;;;3.65;2.13;;;;;;;17.20;100.00;101745.00;4971330;28;20110;-67
2023/08/17 04:10:21;;;;;;;5.60;1.83;;;;;;;17.20;100.00;101756.34;4970876;28;20030;-66
2023/08/17 04:12:46;;;;;;;3.17;1.60;;;;;;;17.20;100.00;101758.97;4971062;28;20082;-67
2023/08/17 04:15:11;;;;;;;4.53;1.92;;;;;;;17.18;100.00;101760.66;4970662;28;20256;-66
2023/08/17 04:17:37;;;;;;;3.70;2.00;;;;;;;17.15;100.00;101769.34;4969993;28;20069;-66
2023/08/17 04:20:02;;;;;;;5.78;1.80;;;;;;;17.13;100.00;101765.81;4970951;28;20457;-67
2023/08/17 04:22:27;;;;;;;4.28;2.08;;;;;;;17.15;100.00;101766.75;4971346;28;20019;-67
2023/08/17 04:24:53;;;;;;;3.75;2.63;;;;;;;17.14;100.00;101766.72;4970495;28;20518;-65
2023/08/17 04:27:18;;;;;;;3.63;2.80;;;;;;;17.14;100.00;101777.19;4970839;28;20041;-66
2023/08/17 04:29:44;;;;;;;5.18;2.58;;;;;;;17.12;100.00;101773.66;4970136;28;20170;-67
2023/08/17 04:32:14;;;;;;;7.60;2.70;;;;;;;17.09;100.00;101777.03;4968937;28;20106;-66
2023/08/17 04:34:41;;;;;;;6.60;2.95;;;;;;;17.07;100.00;101781.34;4968699;28;20034;-67
2023/08/17 04:37:07;;;;;;;3.70;2.80;;;;;;;17.05;100.00;101783.09;4968687;28;20026;-67
2023/08/17 04:39:32;;;;;;;6.25;3.15;;;;;;;17.03;100.00;101782.19;4968827;28;20416;-67
2023/08/17 04:41:58;;;;;;;7.35;3.00;;;;;;;16.98;100.00;101776.81;4967265;28;20033;-67
2023/08/17 04:44:23;;;;;;;6.28;3.10;;;;;;;16.97;100.00;101779.41;4969082;28;20023;-67
2023/08/17 04:46:48;;;;;;;5.60;3.03;;;;;;;16.92;100.00;101777.63;4970190;28;20035;-67
2023/08/17 04:49:14;;;;;;;5.10;2.88;;;;;;;16.89;100.00;101777.53;4970115;28;20459;-67
2023/08/17 04:51:39;;;;;;;5.97;3.28;;;;;;;16.91;100.00;101780.16;4970105;28;20030;-67
2023/08/17 04:54:04;;;;;;;3.78;2.80;;;;;;;16.88;100.00;101781.00;4970230;28;20209;-67
2023/08/17 04:56:30;;;;;;;5.07;3.40;;;;;;;16.87;100.00;101773.13;4969726;28;20023;-67
2023/08/17 04:58:55;;;;;;;6.32;3.45;;;;;;;16.85;100.00;101780.06;4970292;28;20023;-66
2023/08/17 05:01:21;;;;;;;7.68;2.85;;;;;;;16.85;100.00;101769.59;4969779;28;20031;-65
2023/08/17 05:03:46;;;;;;;3.85;2.50;;;;;;;16.80;100.00;101767.75;4964258;28;20114;-66
2023/08/17 05:06:11;;;;;;;4.63;2.85;;;;;;;16.81;100.00;101773.88;4964690;28;20110;-65
2023/08/17 05:08:37;;;;;;;4.35;2.47;;;;;;;16.81;100.00;101773.88;4969632;28;20034;-66
2023/08/17 05:11:02;;;;;;;6.20;2.60;;;;;;;16.79;100.00;101773.84;4969603;28;20386;-64
2023/08/17 05:13:27;;;;;;;2.90;2.58;;;;;;;16.82;100.00;101774.78;4969505;28;20030;-67
2023/08/17 05:15:52;;;;;;;6.50;2.60;;;;;;;16.80;100.00;101770.38;4968878;28;20019;-66
2023/08/17 05:18:18;;;;;;;7.70;3.20;;;;;;;16.82;100.00;101774.78;4969468;28;20031;-67
2023/08/17 05:20:43;;;;;;;4.97;2.42;;;;;;;16.82;100.00;101774.78;4969483;28;20022;-65
2023/08/17 05:23:08;;;;;;;3.63;2.72;;;;;;;16.82;100.00;101774.78;4969763;28;20066;-62
2023/08/17 05:25:33;;;;;;;5.53;3.30;;;;;;;16.83;100.00;101771.28;4970148;28;20661;-66
2023/08/17 05:27:59;;;;;;;4.72;2.70;;;;;;;16.82;100.00;101770.41;4969856;28;20022;-66
2023/08/17 05:30:24;;;;;;;5.25;2.33;;;;;;;16.82;100.00;101774.78;4969193;28;20033;-67
2023/08/17 05:32:49;;;;;;;5.88;2.60;;;;;;;16.82;100.00;101766.91;4969681;28;20051;-67
2023/08/17 05:35:15;;;;;;;4.40;2.60;;;;;;;16.79;100.00;101771.22;4963337;28;20043;-66
2023/08/17 05:37:40;;;;;;;4.55;2.85;;;;;;;16.78;100.00;101763.34;4966421;28;20019;-63
2023/08/17 05:40:06;;;;;;;5.45;2.80;;;;;;;16.77;100.00;101774.66;4955431;28;20648;-66
2023/08/17 05:42:31;;;;;;;4.47;2.25;;;;;;;16.79;100.00;101771.22;4952110;28;20026;-67
2023/08/17 05:44:56;;;;;;;4.32;2.55;;;;;;;16.83;100.00;101774.78;4965792;28;20027;-66
2023/08/17 05:47:22;;;;;;;5.15;3.00;;;;;;;16.88;100.00;101769.66;4968265;28;20023;-66
2023/08/17 05:49:47;;;;;;;7.60;2.75;;;;;;;16.97;100.00;101782.03;4967865;28;20026;-67
2023/08/17 05:52:13;;;;;;;4.78;2.80;;;;;;;17.04;100.00;101782.19;4968520;28;20033;-66
2023/08/17 05:54:38;;;;;;;3.33;2.30;;;;;;;17.15;100.00;101777.22;4967847;28;20042;-65
2023/08/17 05:57:03;;;;;;;4.95;2.47;;;;;;;17.27;100.00;101784.41;4967250;28;20210;-66
2023/08/17 05:59:29;;;;;;;3.25;2.47;;;;;;;17.37;100.00;101784.59;4968605;28;20030;-66
2023/08/17 06:01:54;;;;;;;5.80;2.50;;;;;;;17.41;100.00;101786.44;4969063;28;20019;-66
2023/08/17 06:04:20;;;;;;;3.83;2.50;;;;;;;17.43;100.00;101786.44;4968410;28;20038;-66
2023/08/17 06:06:46;;;;;;;6.40;3.20;;;;;;;17.41;100.00;101786.44;4968433;28;20399;-66
2023/08/17 06:09:11;;;;;;;3.53;2.35;;;;;;;17.39;100.00;101790.75;4968333;28;20066;-65
2023/08/17 06:11:36;;;;;;;4.05;2.72;;;;;;;17.40;100.00;101792.50;4967718;28;20034;-66
2023/08/17 06:14:01;;;;;;;4.72;2.72;;;;;;;17.40;100.00;101789.88;4969146;28;20126;-67
2023/08/17 06:16:27;;;;;;;4.78;3.08;;;;;;;17.37;100.00;101800.31;4968344;28;20027;-66
2023/08/17 06:18:52;;;;;;;4.20;3.30;;;;;;;17.35;100.00;101802.91;4967368;28;20041;-65
2023/08/17 06:21:17;;;;;;;4.70;2.72;;;;;;;17.37;100.00;101802.94;4968636;28;20030;-66
2023/08/17 06:23:43;;;;;;;4.60;2.70;;;;;;;17.38;100.00;101794.22;4968462;28;20023;-66
2023/08/17 06:26:09;;;;;;;7.50;3.67;;;;;;;17.37;100.00;101789.84;4968587;28;20031;-64
2023/08/17 06:28:34;;;;;;;4.60;2.80;;;;;;;17.43;100.00;101789.94;4968960;28;20027;-64
2023/08/17 06:30:59;;;;;;;5.57;2.85;;;;;;;17.47;100.00;101793.50;4968678;28;20027;-67
2023/08/17 06:33:25;;;;;;;6.93;2.85;;;;;;;17.54;100.00;101786.66;4968329;28;20078;-67
2023/08/17 06:35:50;;;;;;;3.72;2.72;;;;;;;17.57;100.00;101800.69;4968459;28;20486;-66
2023/08/17 06:38:16;;;;;;;5.68;3.53;;;;;;;17.61;100.00;101799.00;4968993;28;20030;-65
2023/08/17 06:40:41;;;;;;;6.82;3.30;;;;;;;17.63;100.00;101797.28;4966381;28;20399;-66
2023/08/17 06:43:07;;;;;;;6.25;2.88;;;;;;;17.67;100.00;101801.72;4957652;28;20089;-66
2023/08/17 06:45:32;;;;;;;4.57;3.45;;;;;;;17.71;100.00;101800.94;4968192;28;20026;-67
2023/08/17 06:47:58;;;;;;;7.53;3.72;;;;;;;17.73;100.00;101807.09;4968027;28;20361;-63
2023/08/17 06:50:23;;;;;;;4.10;3.03;;;;;;;17.75;100.00;101797.47;4968389;28;20034;-66
2023/08/17 06:52:48;;;;;;;7.82;3.30;;;;;;;17.77;100.00;101797.53;4968841;28;20038;-67
2023/08/17 06:55:15;;;;;;;3.90;3.10;;;;;;;17.80;100.00;101794.06;4970351;28;20106;-66
2023/08/17 06:57:41;;;;;;;7.13;4.13;;;;;;;17.80;100.00;101800.19;4972231;28;20018;-66
2023/08/17 07:00:07;;;;;;;5.72;3.28;;;;;;;17.80;100.00;101799.31;4971313;28;20066;-66
2023/08/17 07:02:34;;;;;;;3.78;3.20;;;;;;;17.83;100.00;101807.22;4972319;28;20033;-67
2023/08/17 07:04:59;;;;;;;4.93;2.92;;;;;;;17.83;100.00;101807.22;4971988;28;20036;-67
2023/08/17 07:07:25;;;;;;;4.10;3.03;;;;;;;17.80;100.00;101809.78;4970531;28;20045;-67
2023/08/17 07:09:50;;;;;;;7.32;3.33;;;;;;;17.76;100.00;101803.63;4971062;28;20073;-66
2023/08/17 07:12:15;;;;;;;5.97;3.33;;;;;;;17.73;100.00;101804.47;4972111;28;20033;-65
2023/08/17 07:14:41;;;;;;;6.55;3.50;;;;;;;17.76;100.00;101804.50;4971967;28;20105;-67
2023/08/17 07:17:06;;;;;;;6.93;3.30;;;;;;;17.79;100.00;101808.03;4972341;28;20154;-64
2023/08/17 07:19:32;;;;;;;5.82;3.10;;;;;;;17.81;100.00;101803.72;4971190;28;20050;-67
2023/08/17 07:21:57;;;;;;;6.35;3.25;;;;;;;17.81;100.00;101812.44;4971993;28;20458;-66
2023/08/17 07:24:22;;;;;;;6.53;3.60;;;;;;;17.85;100.00;101801.16;4972071;28;20045;-66
2023/08/17 07:26:47;;;;;;;3.58;2.95;;;;;;;17.89;100.00;101809.97;4971843;28;20519;-67
2023/08/17 07:29:13;;;;;;;5.28;3.35;;;;;;;17.93;100.00;101809.16;4970551;28;20109;-67
2023/08/17 07:31:39;;;;;;;5.10;3.20;;;;;;;17.95;100.00;101804.81;4971717;28;20034;-66
2023/08/17 07:34:07;;;;;;;4.18;2.88;;;;;;;17.99;100.00;101804.00;4971737;28;20081;-66
2023/08/17 07:36:33;;;;;;;5.05;3.13;;;;;;;18.04;100.00;101805.84;4970905;28;20023;-67
2023/08/17 07:38:59;;;;;;;3.13;2.78;;;;;;;18.10;100.00;101803.28;4971765;28;20085;-65
2023/08/17 07:41:24;;;;;;;4.43;2.75;;;;;;;18.16;100.00;101802.53;4964048;28;20029;-67
2023/08/17 07:43:50;;;;;;;4.13;3.00;;;;;;;18.19;100.00;101802.59;4966132;28;20679;-65
2023/08/17 07:46:15;;;;;;;5.38;3.08;;;;;;;18.22;100.00;101810.53;4971432;28;20045;-64
2023/08/17 07:48:40;;;;;;;7.07;2.88;;;;;;;18.25;100.00;101802.69;4971626;28;20023;-66
2023/08/17 07:51:06;;;;;;;5.88;3.70;;;;;;;18.28;100.00;101809.72;4971389;28;20088;-67
2023/08/17 07:53:31;;;;;;;3.75;2.88;;;;;;;18.29;100.00;101812.38;4970818;28;20031;-66
2023/08/17 07:55:56;;;;;;;4.63;3.75;;;;;;;18.29;100.00;101814.13;4971293;28;20030;-66
2023/08/17 07:58:22;;;;;;;7.90;3.88;;;;;;;18.26;100.00;101814.06;4972383;28;20034;-66
2023/08/17 08:00:47;;;;;;;6.50;3.75;;;;;;;18.23;100.00;101814.91;4970912;28;20053;-66
2023/08/17 08:03:14;;;;;;;6.57;3.10;;;;;;;18.24;100.00;101822.78;4969434;28;20073;-66
2023/08/17 08:05:39;;;;;;;5.43;3.20;;;;;;;18.24;100.00;101812.28;4968704;28;20524;-65
2023/08/17 08:08:05;;;;;;;4.53;2.92;;;;;;;18.28;100.00;101817.56;4969352;28;20031;-66
2023/08/17 08:10:30;;;;;;;4.13;3.08;;;;;;;18.32;100.00;101819.41;4969088;28;20534;-67
2023/08/17 08:12:55;;;;;;;6.00;3.28;;;;;;;18.34;100.00;101817.69;4968188;28;20270;-65
2023/08/17 08:15:21;;;;;;;8.13;3.95;;;;;;;18.34;100.00;101818.56;4968642;28;20398;-67
2023/08/17 08:17:46;;;;;;;4.55;3.70;;;;;;;18.27;100.00;101816.72;4968164;28;20047;-67
2023/08/17 08:20:11;;;;;;;6.32;4.03;;;;;;;18.17;100.00;101815.69;4968734;28;20073;-67
2023/08/17 08:22:36;;;;;;;6.88;4.10;;;;;;;18.19;100.00;101819.22;4969079;28;20022;-65
2023/08/17 08:25:02;;;;;;;5.30;3.58;;;;;;;18.21;100.00;101806.13;4968842;28;20389;-66
2023/08/17 08:27:27;;;;;;;9.52;3.40;;;;;;;18.26;100.00;101814.06;4969090;28;20042;-66
2023/08/17 08:29:52;;;;;;;6.25;3.13;;;;;;;18.27;100.00;101816.72;4970077;28;20027;-66
2023/08/17 08:32:18;;;;;;;6.43;3.10;;;;;;;18.31;100.00;101823.75;4971065;28;20374;-66
2023/08/17 08:34:43;;;;;;;6.30;3.30;;;;;;;18.33;100.00;101831.69;4971001;28;20019;-66
2023/08/17 08:37:08;;;;;;;7.28;3.17;;;;;;;18.32;100.00;101827.28;4970686;28;20069;-66
2023/08/17 08:39:48;;;;;;;5.00;3.40;;;;;;;18.30;100.00;101827.25;4970557;28;20023;-66
2023/08/17 08:42:14;;;;;;;4.20;3.33;;;;;;;18.29;100.00;101821.97;4953762;28;20023;-67
2023/08/17 08:44:39;;;;;;;5.90;3.55;;;;;;;18.29;100.00;101824.59;4970869;28;20367;-66
2023/08/17 08:47:04;;;;;;;7.65;4.03;;;;;;;18.27;100.00;101821.97;4970655;28;20402;-67
2023/08/17 08:49:34;;;;;;;6.45;3.67;;;;;;;18.24;100.00;101825.41;4970459;28;20382;-63
2023/08/17 08:52:00;;;;;;;7.97;3.85;;;;;;;18.26;100.00;101819.31;4969807;28;20026;-66
2023/08/17 08:54:26;;;;;;;7.50;3.60;;;;;;;18.25;100.00;101818.44;4970767;28;20027;-66
2023/08/17 08:56:58;;;;;;;4.50;3.25;;;;;;;18.28;100.00;101818.47;4970186;28;20053;-66
2023/08/17 08:59:26;;;;;;;6.45;4.00;;;;;;;18.30;100.00;101806.25;4970189;28;20034;-66
2023/08/17 09:01:52;;;;;;;5.38;4.10;;;;;;;18.29;100.00;101815.00;4969579;28;20031;-66
2023/08/17 09:04:17;;;;;;;7.75;4.05;;;;;;;18.28;100.00;101802.72;4970241;28;20098;-66
2023/08/17 09:06:43;;;;;;;4.95;3.83;;;;;;;18.28;100.00;101804.47;4969881;28;20057;-67
2023/08/17 09:09:10;;;;;;;6.47;3.85;;;;;;;18.27;100.00;101805.34;4970106;28;20035;-65
2023/08/17 09:11:36;;;;;;;8.25;3.92;;;;;;;18.28;100.00;101796.59;4969557;28;20121;-64
2023/08/17 09:14:01;;;;;;;7.38;4.03;;;;;;;18.30;100.00;101803.66;4970025;28;20106;-67
2023/08/17 09:16:27;;;;;;;8.00;4.53;;;;;;;18.30;100.00;101802.75;4970012;28;20018;-66
2023/08/17 09:18:53;;;;;;;9.82;5.53;;;;;;;18.27;100.00;101800.09;4969580;28;20033;-64
2023/08/17 09:21:23;;;;;;;7.13;4.35;;;;;;;18.28;100.00;101802.72;4969360;28;20058;-66
2023/08/17 09:23:53;;;;;;;8.05;4.65;;;;;;;18.29;100.00;101815.00;4970062;28;20105;-67
2023/08/17 09:26:23;;;;;;;7.78;5.22;;;;;;;18.30;100.00;101803.66;4970279;28;20027;-66
2023/08/17 09:28:50;;;;;;;13.40;5.35;;;;;;;18.29;100.00;101806.25;4969903;28;20248;-66
2023/08/17 09:31:15;;;;;;;9.65;4.68;;;;;;;18.29;100.00;101798.38;4969750;28;20046;-66
2023/08/17 09:33:40;;;;;;;8.77;5.00;;;;;;;18.10;100.00;101795.41;4969789;28;20069;-67
2023/08/17 09:36:06;;;;;;;11.77;5.60;;;;;;;18.13;100.00;101798.13;4969656;28;20054;-64
2023/08/17 09:38:31;;;;;;;10.15;6.10;;;;;;;18.18;100.00;101800.84;4969674;28;20022;-66
2023/08/17 09:40:57;;;;;;;13.32;6.50;;;;;;;18.22;100.00;101795.66;4969366;28;20444;-66
2023/08/17 09:43:25;;;;;;;9.75;5.82;;;;;;;18.29;100.00;101787.88;4969199;28;20041;-67
2023/08/17 09:45:50;;;;;;;11.80;5.45;;;;;;;18.36;100.00;101795.88;4969259;28;20030;-66
2023/08/17 09:48:17;;;;;;;10.35;5.82;;;;;;;18.39;100.00;101792.41;4969500;28;20037;-66
2023/08/17 09:50:44;;;;;;;7.00;5.47;;;;;;;18.38;100.00;101793.28;4969513;28;20378;-67
2023/08/17 09:53:14;;;;;;;9.18;5.40;;;;;;;18.39;100.00;101797.66;4969096;28;20097;-63
2023/08/17 09:55:41;;;;;;;12.00;7.25;;;;;;;18.39;100.00;101799.38;4968778;28;20034;-66
2023/08/17 09:58:07;;;;;;;9.35;6.45;;;;;;;18.38;100.00;101793.28;4969434;28;20062;-64
2023/08/17 10:00:33;;;;;;;10.00;6.53;;;;;;;18.34;100.00;101787.09;4969249;28;20132;-64
2023/08/17 10:03:02;;;;;;;9.00;6.68;;;;;;;18.29;100.00;101791.41;4969277;28;20081;-67
2023/08/17 10:05:30;;;;;;;11.35;6.80;;;;;;;18.29;100.00;101787.88;4968948;28;20086;-64
2023/08/17 10:07:58;;;;;;;10.75;7.35;;;;;;;18.28;100.00;101780.84;4969175;28;20414;-66
2023/08/17 10:10:29;;;;;;;8.07;6.35;;;;;;;18.30;100.00;101780.03;4967912;28;20030;-67
2023/08/17 10:13:39;;;;;;;10.30;6.88;;;;;;;18.32;100.00;101783.56;4968871;28;20123;-66
2023/08/17 10:16:36;;;;;;;9.70;6.75;;;;;;;18.37;100.00;101773.13;4968292;28;20502;-66
2023/08/17 10:19:20;;;;;;;9.90;6.80;;;;;;;18.42;100.00;101768.81;4960471;28;20037;-65
2023/08/17 10:22:07;;;;;;;10.95;6.40;;;;;;;18.44;100.00;101772.34;4968671;28;20019;-67
2023/08/17 10:24:36;;;;;;;12.70;7.70;;;;;;;18.47;100.00;101767.13;4968404;28;20101;-67
2023/08/17 10:27:03;;;;;;;11.50;7.15;;;;;;;18.47;100.00;101761.03;4968936;28;20086;-67
2023/08/17 10:29:29;;;;;;;10.80;7.00;;;;;;;18.51;100.00;101767.22;4968351;28;20054;-67
2023/08/17 10:31:55;;;;;;;11.55;7.35;;;;;;;18.55;100.00;101758.50;4969307;28;20197;-67
2023/08/17 10:34:20;;;;;;;10.57;7.40;;;;;;;18.57;100.00;101752.41;4968839;28;20026;-67
2023/08/17 10:36:46;;;;;;;13.60;7.88;;;;;;;18.63;100.00;101762.13;4968506;28;20022;-66
2023/08/17 10:39:22;;;;;;;11.38;7.93;;;;;;;18.64;100.00;101766.50;4968968;28;20019;-67
2023/08/17 10:41:49;;;;;;;10.63;6.95;;;;;;;18.64;100.00;101770.84;4969094;28;20082;-66
2023/08/17 10:44:14;;;;;;;12.35;7.82;;;;;;;18.56;100.00;101762.91;4968756;28;20030;-64
2023/08/17 10:46:40;;;;;;;10.90;8.00;;;;;;;18.53;100.00;101768.13;4968073;28;20031;-66
2023/08/17 10:49:23;;;;;;;12.90;9.13;;;;;;;18.54;100.00;101764.63;4968661;28;20027;-64
2023/08/17 10:52:03;;;;;;;13.93;9.02;;;;;;;18.56;100.00;101765.53;4968733;28;20027;-66
2023/08/17 10:54:39;;;;;;;9.67;6.23;;;;;;;18.62;100.00;101755.09;4958179;28;20026;-66
2023/08/17 10:57:30;;;;;;;11.40;8.70;;;;;;;18.71;100.00;101759.56;4968022;28;20023;-67
2023/08/17 11:00:20;;;;;;;13.70;8.95;;;;;;;18.77;100.00;101758.78;4969034;28;20549;-63
2023/08/17 11:03:01;;;;;;;14.55;8.23;;;;;;;18.82;100.00;101757.09;4959724;28;20395;-67
2023/08/17 11:05:47;;;;;;;14.15;8.68;;;;;;;18.88;100.00;101757.16;4968583;28;20031;-66
2023/08/17 11:08:31;;;;;;;13.25;9.05;;;;;;;18.92;100.00;101763.34;4968629;28;20050;-67
2023/08/17 11:11:11;;;;;;;11.77;7.97;;;;;;;18.95;100.00;101769.50;4968809;28;20474;-67
2023/08/17 11:13:38;;;;;;;10.10;8.27;;;;;;;18.94;100.00;101766.88;4968729;28;20274;-67
2023/08/17 11:16:05;;;;;;;9.77;8.00;;;;;;;18.92;100.00;101768.59;4968250;28;20082;-67